sensor_id;sensor_type;location;lat;lon;timestamp;P1;durP1;ratioP1;P2;durP2;ratioP2
11665;SDS011;5889;51.350;6.708;2023-08-30T00:00:21;15.90;;;13.13;;
11665;SDS011;5889;51.350;6.708;2023-08-30T00:02:48;17.17;;;12.55;;
11665;SDS011;5889;51.350;6.708;2023-08-30T00:05:15;15.55;;;13.30;;
11665;SDS011;5889;51.350;6.708;2023-08-30T00:07:42;14.77;;;12.77;;
11665;SDS011;5889;51.350;6.708;2023-08-30T00:10:10;19.13;;;14.05;;
11665;SDS011;5889;51.350;6.708;2023-08-30T00:12:36;16.50;;;14.20;;
11665;SDS011;5889;51.350;6.708;2023-08-30T00:15:04;20.10;;;14.95;;
11665;SDS011;5889;51.350;6.708;2023-08-30T00:17:33;18.95;;;15.02;;
11665;SDS011;5889;51.350;6.708;2023-08-30T00:20:00;22.43;;;15.57;;
11665;SDS011;5889;51.350;6.708;2023-08-30T00:22:28;22.50;;;16.35;;
11665;SDS011;5889;51.350;6.708;2023-08-30T00:24:56;19.77;;;16.05;;
11665;SDS011;5889;51.350;6.708;2023-08-30T00:27:23;22.63;;;17.15;;
11665;SDS011;5889;51.350;6.708;2023-08-30T00:29:49;21.98;;;17.20;;
11665;SDS011;5889;51.350;6.708;2023-08-30T00:32:16;20.73;;;16.77;;
11665;SDS011;5889;51.350;6.708;2023-08-30T00:34:45;21.40;;;17.65;;
11665;SDS011;5889;51.350;6.708;2023-08-30T00:37:12;19.67;;;16.67;;
11665;SDS011;5889;51.350;6.708;2023-08-30T00:39:39;21.20;;;17.63;;
11665;SDS011;5889;51.350;6.708;2023-08-30T00:42:05;23.20;;;18.75;;
11665;SDS011;5889;51.350;6.708;2023-08-30T00:44:32;22.77;;;17.90;;
11665;SDS011;5889;51.350;6.708;2023-08-30T00:47:00;21.67;;;18.15;;
11665;SDS011;5889;51.350;6.708;2023-08-30T00:49:28;23.20;;;18.50;;
11665;SDS011;5889;51.350;6.708;2023-08-30T00:51:57;22.60;;;18.10;;
11665;SDS011;5889;51.350;6.708;2023-08-30T00:54:26;22.63;;;17.80;;
11665;SDS011;5889;51.350;6.708;2023-08-30T00:56:54;22.83;;;16.87;;
11665;SDS011;5889;51.350;6.708;2023-08-30T00:59:21;21.63;;;17.97;;
11665;SDS011;5889;51.350;6.708;2023-08-30T01:01:49;23.13;;;16.93;;
11665;SDS011;5889;51.350;6.708;2023-08-30T01:04:16;18.63;;;15.83;;
11665;SDS011;5889;51.350;6.708;2023-08-30T01:06:44;20.63;;;16.27;;
11665;SDS011;5889;51.350;6.708;2023-08-30T01:09:12;19.87;;;16.90;;
11665;SDS011;5889;51.350;6.708;2023-08-30T01:11:39;21.67;;;17.23;;
11665;SDS011;5889;51.350;6.708;2023-08-30T01:14:13;20.13;;;16.13;;
11665;SDS011;5889;51.350;6.708;2023-08-30T01:16:45;21.77;;;16.37;;
11665;SDS011;5889;51.350;6.708;2023-08-30T01:19:17;22.60;;;17.23;;
11665;SDS011;5889;51.350;6.708;2023-08-30T01:22:01;23.90;;;16.93;;
11665;SDS011;5889;51.350;6.708;2023-08-30T01:24:37;21.47;;;16.93;;
11665;SDS011;5889;51.350;6.708;2023-08-30T01:27:13;21.20;;;17.00;;
11665;SDS011;5889;51.350;6.708;2023-08-30T01:29:43;20.33;;;17.10;;
11665;SDS011;5889;51.350;6.708;2023-08-30T01:32:11;23.40;;;17.03;;
11665;SDS011;5889;51.350;6.708;2023-08-30T01:34:39;21.93;;;17.60;;
11665;SDS011;5889;51.350;6.708;2023-08-30T01:37:07;21.53;;;17.13;;
11665;SDS011;5889;51.350;6.708;2023-08-30T01:39:34;21.43;;;17.27;;
11665;SDS011;5889;51.350;6.708;2023-08-30T01:42:04;22.90;;;18.07;;
11665;SDS011;5889;51.350;6.708;2023-08-30T01:44:33;19.97;;;16.17;;
11665;SDS011;5889;51.350;6.708;2023-08-30T01:47:01;26.87;;;18.23;;
11665;SDS011;5889;51.350;6.708;2023-08-30T01:49:29;21.37;;;17.63;;
11665;SDS011;5889;51.350;6.708;2023-08-30T01:51:58;25.93;;;17.40;;
11665;SDS011;5889;51.350;6.708;2023-08-30T01:54:26;22.87;;;17.27;;
11665;SDS011;5889;51.350;6.708;2023-08-30T01:56:55;22.93;;;17.73;;
11665;SDS011;5889;51.350;6.708;2023-08-30T01:59:23;23.27;;;17.70;;
11665;SDS011;5889;51.350;6.708;2023-08-30T02:01:52;24.07;;;18.33;;
11665;SDS011;5889;51.350;6.708;2023-08-30T02:04:19;22.20;;;17.63;;
11665;SDS011;5889;51.350;6.708;2023-08-30T02:06:48;20.73;;;18.40;;
11665;SDS011;5889;51.350;6.708;2023-08-30T02:09:21;22.97;;;18.77;;
11665;SDS011;5889;51.350;6.708;2023-08-30T02:11:53;24.57;;;18.13;;
11665;SDS011;5889;51.350;6.708;2023-08-30T02:14:21;24.17;;;18.52;;
11665;SDS011;5889;51.350;6.708;2023-08-30T02:16:49;25.77;;;18.43;;
11665;SDS011;5889;51.350;6.708;2023-08-30T02:19:21;24.30;;;18.47;;
11665;SDS011;5889;51.350;6.708;2023-08-30T02:21:48;25.37;;;19.10;;
11665;SDS011;5889;51.350;6.708;2023-08-30T02:24:15;28.93;;;18.87;;
11665;SDS011;5889;51.350;6.708;2023-08-30T02:26:42;24.47;;;19.27;;
11665;SDS011;5889;51.350;6.708;2023-08-30T02:29:09;24.87;;;20.03;;
11665;SDS011;5889;51.350;6.708;2023-08-30T02:31:38;25.83;;;19.10;;
11665;SDS011;5889;51.350;6.708;2023-08-30T02:34:06;29.43;;;20.83;;
11665;SDS011;5889;51.350;6.708;2023-08-30T02:36:33;26.17;;;19.47;;
11665;SDS011;5889;51.350;6.708;2023-08-30T02:39:00;27.73;;;19.53;;
11665;SDS011;5889;51.350;6.708;2023-08-30T02:41:28;24.73;;;19.80;;
11665;SDS011;5889;51.350;6.708;2023-08-30T02:43:55;23.50;;;19.10;;
11665;SDS011;5889;51.350;6.708;2023-08-30T02:46:22;26.20;;;20.13;;
11665;SDS011;5889;51.350;6.708;2023-08-30T02:48:49;25.80;;;19.90;;
11665;SDS011;5889;51.350;6.708;2023-08-30T02:51:17;23.80;;;20.10;;
11665;SDS011;5889;51.350;6.708;2023-08-30T02:53:44;23.47;;;18.03;;
11665;SDS011;5889;51.350;6.708;2023-08-30T02:56:11;23.33;;;19.27;;
11665;SDS011;5889;51.350;6.708;2023-08-30T02:58:38;24.20;;;19.03;;
11665;SDS011;5889;51.350;6.708;2023-08-30T03:01:05;22.27;;;18.67;;
11665;SDS011;5889;51.350;6.708;2023-08-30T03:03:32;25.93;;;20.17;;
11665;SDS011;5889;51.350;6.708;2023-08-30T03:05:59;26.90;;;20.53;;
11665;SDS011;5889;51.350;6.708;2023-08-30T03:08:29;22.70;;;19.90;;
11665;SDS011;5889;51.350;6.708;2023-08-30T03:10:56;24.07;;;20.47;;
11665;SDS011;5889;51.350;6.708;2023-08-30T03:13:33;26.33;;;19.93;;
11665;SDS011;5889;51.350;6.708;2023-08-30T03:16:00;24.23;;;18.80;;
11665;SDS011;5889;51.350;6.708;2023-08-30T03:18:26;24.47;;;19.43;;
11665;SDS011;5889;51.350;6.708;2023-08-30T03:20:59;24.13;;;19.17;;
11665;SDS011;5889;51.350;6.708;2023-08-30T03:23:28;24.67;;;19.93;;
11665;SDS011;5889;51.350;6.708;2023-08-30T03:25:56;24.93;;;18.60;;
11665;SDS011;5889;51.350;6.708;2023-08-30T03:28:23;25.70;;;18.47;;
11665;SDS011;5889;51.350;6.708;2023-08-30T03:30:50;23.93;;;17.87;;
11665;SDS011;5889;51.350;6.708;2023-08-30T03:33:17;27.30;;;19.77;;
11665;SDS011;5889;51.350;6.708;2023-08-30T03:35:44;26.47;;;18.87;;
11665;SDS011;5889;51.350;6.708;2023-08-30T03:38:11;27.20;;;20.20;;
11665;SDS011;5889;51.350;6.708;2023-08-30T03:40:39;24.10;;;19.80;;
11665;SDS011;5889;51.350;6.708;2023-08-30T03:43:06;24.20;;;19.17;;
11665;SDS011;5889;51.350;6.708;2023-08-30T03:45:34;25.60;;;19.47;;
11665;SDS011;5889;51.350;6.708;2023-08-30T03:48:02;24.70;;;19.53;;
11665;SDS011;5889;51.350;6.708;2023-08-30T03:50:29;24.00;;;19.80;;
11665;SDS011;5889;51.350;6.708;2023-08-30T03:52:56;25.70;;;20.03;;
11665;SDS011;5889;51.350;6.708;2023-08-30T03:55:23;23.43;;;18.13;;
11665;SDS011;5889;51.350;6.708;2023-08-30T03:57:51;21.57;;;17.90;;
11665;SDS011;5889;51.350;6.708;2023-08-30T04:00:18;23.13;;;19.70;;
11665;SDS011;5889;51.350;6.708;2023-08-30T04:02:45;24.00;;;18.80;;
11665;SDS011;5889;51.350;6.708;2023-08-30T04:05:12;25.20;;;19.47;;
11665;SDS011;5889;51.350;6.708;2023-08-30T04:07:39;25.07;;;19.37;;
11665;SDS011;5889;51.350;6.708;2023-08-30T04:10:06;27.67;;;20.27;;
11665;SDS011;5889;51.350;6.708;2023-08-30T04:12:34;22.77;;;18.80;;
11665;SDS011;5889;51.350;6.708;2023-08-30T04:15:03;24.87;;;18.90;;
11665;SDS011;5889;51.350;6.708;2023-08-30T04:17:30;23.37;;;19.13;;
11665;SDS011;5889;51.350;6.708;2023-08-30T04:19:57;23.30;;;18.93;;
11665;SDS011;5889;51.350;6.708;2023-08-30T04:22:24;26.57;;;20.07;;
11665;SDS011;5889;51.350;6.708;2023-08-30T04:24:51;29.43;;;19.63;;
11665;SDS011;5889;51.350;6.708;2023-08-30T04:27:18;25.50;;;19.40;;
11665;SDS011;5889;51.350;6.708;2023-08-30T04:29:45;25.23;;;19.37;;
11665;SDS011;5889;51.350;6.708;2023-08-30T04:32:14;26.10;;;19.47;;
11665;SDS011;5889;51.350;6.708;2023-08-30T04:34:41;25.17;;;19.47;;
11665;SDS011;5889;51.350;6.708;2023-08-30T04:37:08;26.63;;;19.30;;
11665;SDS011;5889;51.350;6.708;2023-08-30T04:39:34;28.60;;;19.40;;
11665;SDS011;5889;51.350;6.708;2023-08-30T04:42:01;25.40;;;20.13;;
11665;SDS011;5889;51.350;6.708;2023-08-30T04:44:29;24.83;;;19.67;;
11665;SDS011;5889;51.350;6.708;2023-08-30T04:46:57;28.73;;;19.70;;
11665;SDS011;5889;51.350;6.708;2023-08-30T04:49:25;29.60;;;20.10;;
11665;SDS011;5889;51.350;6.708;2023-08-30T04:51:54;29.40;;;21.30;;
11665;SDS011;5889;51.350;6.708;2023-08-30T04:54:21;29.70;;;20.83;;
11665;SDS011;5889;51.350;6.708;2023-08-30T04:56:48;27.37;;;20.43;;
11665;SDS011;5889;51.350;6.708;2023-08-30T04:59:16;28.20;;;19.83;;
11665;SDS011;5889;51.350;6.708;2023-08-30T05:01:43;30.63;;;20.13;;
11665;SDS011;5889;51.350;6.708;2023-08-30T05:04:10;31.87;;;21.23;;
11665;SDS011;5889;51.350;6.708;2023-08-30T05:06:38;28.87;;;20.07;;
11665;SDS011;5889;51.350;6.708;2023-08-30T05:09:05;28.13;;;20.53;;
11665;SDS011;5889;51.350;6.708;2023-08-30T05:11:32;26.90;;;18.80;;
11665;SDS011;5889;51.350;6.708;2023-08-30T05:13:59;32.40;;;20.50;;
11665;SDS011;5889;51.350;6.708;2023-08-30T05:16:26;26.90;;;20.33;;
11665;SDS011;5889;51.350;6.708;2023-08-30T05:18:53;27.97;;;20.33;;
11665;SDS011;5889;51.350;6.708;2023-08-30T05:21:20;30.70;;;21.33;;
11665;SDS011;5889;51.350;6.708;2023-08-30T05:23:48;30.67;;;20.77;;
11665;SDS011;5889;51.350;6.708;2023-08-30T05:26:15;27.97;;;21.90;;
11665;SDS011;5889;51.350;6.708;2023-08-30T05:28:44;32.57;;;21.47;;
11665;SDS011;5889;51.350;6.708;2023-08-30T05:31:11;30.17;;;22.07;;
11665;SDS011;5889;51.350;6.708;2023-08-30T05:33:38;30.57;;;20.20;;
11665;SDS011;5889;51.350;6.708;2023-08-30T05:36:05;26.27;;;20.47;;
11665;SDS011;5889;51.350;6.708;2023-08-30T05:38:34;27.80;;;20.73;;
11665;SDS011;5889;51.350;6.708;2023-08-30T05:41:03;28.87;;;21.13;;
11665;SDS011;5889;51.350;6.708;2023-08-30T05:43:30;28.40;;;20.53;;
11665;SDS011;5889;51.350;6.708;2023-08-30T05:45:57;26.47;;;20.10;;
11665;SDS011;5889;51.350;6.708;2023-08-30T05:48:27;27.93;;;20.20;;
11665;SDS011;5889;51.350;6.708;2023-08-30T05:50:54;27.67;;;19.20;;
11665;SDS011;5889;51.350;6.708;2023-08-30T05:53:21;23.43;;;16.90;;
11665;SDS011;5889;51.350;6.708;2023-08-30T05:55:48;25.00;;;19.03;;
11665;SDS011;5889;51.350;6.708;2023-08-30T05:58:16;28.53;;;19.63;;
11665;SDS011;5889;51.350;6.708;2023-08-30T06:00:44;25.20;;;18.30;;
11665;SDS011;5889;51.350;6.708;2023-08-30T06:03:11;24.30;;;18.97;;
11665;SDS011;5889;51.350;6.708;2023-08-30T06:05:38;24.27;;;18.23;;
11665;SDS011;5889;51.350;6.708;2023-08-30T06:08:05;28.33;;;18.63;;
11665;SDS011;5889;51.350;6.708;2023-08-30T06:10:33;29.40;;;18.70;;
11665;SDS011;5889;51.350;6.708;2023-08-30T06:13:00;31.97;;;20.30;;
11665;SDS011;5889;51.350;6.708;2023-08-30T06:15:28;24.17;;;18.03;;
11665;SDS011;5889;51.350;6.708;2023-08-30T06:17:55;28.23;;;19.43;;
11665;SDS011;5889;51.350;6.708;2023-08-30T06:20:23;21.37;;;17.20;;
11665;SDS011;5889;51.350;6.708;2023-08-30T06:22:50;23.40;;;17.53;;
11665;SDS011;5889;51.350;6.708;2023-08-30T06:25:17;20.93;;;15.90;;
11665;SDS011;5889;51.350;6.708;2023-08-30T06:27:55;21.47;;;15.73;;
11665;SDS011;5889;51.350;6.708;2023-08-30T06:30:24;22.47;;;13.43;;
11665;SDS011;5889;51.350;6.708;2023-08-30T06:32:52;22.30;;;16.57;;
11665;SDS011;5889;51.350;6.708;2023-08-30T06:35:19;24.47;;;18.30;;
11665;SDS011;5889;51.350;6.708;2023-08-30T06:37:46;25.80;;;17.73;;
11665;SDS011;5889;51.350;6.708;2023-08-30T06:40:13;25.67;;;17.20;;
11665;SDS011;5889;51.350;6.708;2023-08-30T06:42:40;19.10;;;14.73;;
11665;SDS011;5889;51.350;6.708;2023-08-30T06:45:07;21.77;;;16.97;;
11665;SDS011;5889;51.350;6.708;2023-08-30T06:47:34;25.40;;;17.77;;
11665;SDS011;5889;51.350;6.708;2023-08-30T06:50:03;22.60;;;17.87;;
11665;SDS011;5889;51.350;6.708;2023-08-30T06:52:30;19.63;;;15.43;;
11665;SDS011;5889;51.350;6.708;2023-08-30T06:54:57;20.60;;;16.13;;
11665;SDS011;5889;51.350;6.708;2023-08-30T06:57:24;19.97;;;15.47;;
11665;SDS011;5889;51.350;6.708;2023-08-30T06:59:51;20.10;;;15.97;;
11665;SDS011;5889;51.350;6.708;2023-08-30T07:02:18;19.52;;;14.25;;
11665;SDS011;5889;51.350;6.708;2023-08-30T07:04:45;18.53;;;13.43;;
11665;SDS011;5889;51.350;6.708;2023-08-30T07:07:13;18.83;;;15.27;;
11665;SDS011;5889;51.350;6.708;2023-08-30T07:09:40;16.70;;;12.93;;
11665;SDS011;5889;51.350;6.708;2023-08-30T07:12:07;18.57;;;14.20;;
11665;SDS011;5889;51.350;6.708;2023-08-30T07:14:34;15.60;;;11.43;;
11665;SDS011;5889;51.350;6.708;2023-08-30T07:17:01;20.07;;;12.00;;
11665;SDS011;5889;51.350;6.708;2023-08-30T07:19:28;19.10;;;13.07;;
11665;SDS011;5889;51.350;6.708;2023-08-30T07:21:55;14.93;;;11.90;;
11665;SDS011;5889;51.350;6.708;2023-08-30T07:24:24;16.63;;;12.43;;
11665;SDS011;5889;51.350;6.708;2023-08-30T07:26:51;14.70;;;11.13;;
11665;SDS011;5889;51.350;6.708;2023-08-30T07:29:17;13.33;;;10.40;;
11665;SDS011;5889;51.350;6.708;2023-08-30T07:31:44;13.27;;;10.10;;
11665;SDS011;5889;51.350;6.708;2023-08-30T07:34:11;14.50;;;9.57;;
11665;SDS011;5889;51.350;6.708;2023-08-30T07:36:38;14.47;;;10.50;;
11665;SDS011;5889;51.350;6.708;2023-08-30T07:39:05;14.53;;;9.60;;
11665;SDS011;5889;51.350;6.708;2023-08-30T07:41:33;15.30;;;9.52;;
11665;SDS011;5889;51.350;6.708;2023-08-30T07:44:00;13.40;;;9.20;;
11665;SDS011;5889;51.350;6.708;2023-08-30T07:46:28;14.60;;;8.80;;
11665;SDS011;5889;51.350;6.708;2023-08-30T07:48:55;11.88;;;7.80;;
11665;SDS011;5889;51.350;6.708;2023-08-30T07:51:22;11.55;;;8.52;;
11665;SDS011;5889;51.350;6.708;2023-08-30T07:53:48;13.48;;;8.52;;
11665;SDS011;5889;51.350;6.708;2023-08-30T07:56:15;13.65;;;8.48;;
11665;SDS011;5889;51.350;6.708;2023-08-30T07:58:44;13.15;;;8.32;;
11665;SDS011;5889;51.350;6.708;2023-08-30T08:01:10;9.80;;;7.07;;
11665;SDS011;5889;51.350;6.708;2023-08-30T08:03:37;12.57;;;6.32;;
11665;SDS011;5889;51.350;6.708;2023-08-30T08:06:06;8.38;;;5.47;;
11665;SDS011;5889;51.350;6.708;2023-08-30T08:08:33;7.40;;;6.05;;
11665;SDS011;5889;51.350;6.708;2023-08-30T08:11:00;12.77;;;6.25;;
11665;SDS011;5889;51.350;6.708;2023-08-30T08:13:27;10.77;;;5.53;;
11665;SDS011;5889;51.350;6.708;2023-08-30T08:15:56;8.82;;;5.30;;
11665;SDS011;5889;51.350;6.708;2023-08-30T08:18:24;6.00;;;4.80;;
11665;SDS011;5889;51.350;6.708;2023-08-30T08:20:52;12.02;;;5.20;;
11665;SDS011;5889;51.350;6.708;2023-08-30T08:23:19;7.68;;;5.32;;
11665;SDS011;5889;51.350;6.708;2023-08-30T08:25:46;10.93;;;5.15;;
11665;SDS011;5889;51.350;6.708;2023-08-30T08:28:13;8.35;;;5.35;;
11665;SDS011;5889;51.350;6.708;2023-08-30T08:30:41;10.50;;;5.40;;
11665;SDS011;5889;51.350;6.708;2023-08-30T08:33:11;8.43;;;4.90;;
11665;SDS011;5889;51.350;6.708;2023-08-30T08:35:38;7.75;;;5.05;;
11665;SDS011;5889;51.350;6.708;2023-08-30T08:38:05;9.35;;;5.25;;
11665;SDS011;5889;51.350;6.708;2023-08-30T08:40:32;6.90;;;5.13;;
11665;SDS011;5889;51.350;6.708;2023-08-30T08:43:03;9.73;;;5.07;;
11665;SDS011;5889;51.350;6.708;2023-08-30T08:45:32;10.00;;;4.78;;
11665;SDS011;5889;51.350;6.708;2023-08-30T08:48:01;11.13;;;5.28;;
11665;SDS011;5889;51.350;6.708;2023-08-30T08:50:32;10.75;;;4.90;;
11665;SDS011;5889;51.350;6.708;2023-08-30T08:52:59;10.15;;;4.97;;
11665;SDS011;5889;51.350;6.708;2023-08-30T08:55:27;6.70;;;4.88;;
11665;SDS011;5889;51.350;6.708;2023-08-30T08:57:56;6.57;;;4.75;;
11665;SDS011;5889;51.350;6.708;2023-08-30T09:00:24;6.82;;;4.78;;
11665;SDS011;5889;51.350;6.708;2023-08-30T09:02:52;7.82;;;4.80;;
11665;SDS011;5889;51.350;6.708;2023-08-30T09:05:20;8.23;;;4.55;;
11665;SDS011;5889;51.350;6.708;2023-08-30T09:07:49;6.15;;;4.60;;
11665;SDS011;5889;51.350;6.708;2023-08-30T09:10:19;7.03;;;5.10;;
11665;SDS011;5889;51.350;6.708;2023-08-30T09:12:46;9.45;;;5.20;;
11665;SDS011;5889;51.350;6.708;2023-08-30T09:15:14;5.25;;;4.43;;
11665;SDS011;5889;51.350;6.708;2023-08-30T09:17:41;8.18;;;4.50;;
11665;SDS011;5889;51.350;6.708;2023-08-30T09:20:09;8.80;;;4.82;;
11665;SDS011;5889;51.350;6.708;2023-08-30T09:22:37;6.72;;;5.22;;
11665;SDS011;5889;51.350;6.708;2023-08-30T09:25:07;6.78;;;5.10;;
11665;SDS011;5889;51.350;6.708;2023-08-30T09:27:35;10.93;;;5.43;;
11665;SDS011;5889;51.350;6.708;2023-08-30T09:30:04;6.35;;;4.78;;
11665;SDS011;5889;51.350;6.708;2023-08-30T09:32:38;7.47;;;5.60;;
11665;SDS011;5889;51.350;6.708;2023-08-30T09:35:06;7.45;;;5.60;;
11665;SDS011;5889;51.350;6.708;2023-08-30T09:37:34;12.32;;;6.22;;
11665;SDS011;5889;51.350;6.708;2023-08-30T09:40:01;11.85;;;6.40;;
11665;SDS011;5889;51.350;6.708;2023-08-30T09:42:29;9.10;;;6.00;;
11665;SDS011;5889;51.350;6.708;2023-08-30T09:44:57;8.55;;;5.32;;
11665;SDS011;5889;51.350;6.708;2023-08-30T09:47:24;9.43;;;6.47;;
11665;SDS011;5889;51.350;6.708;2023-08-30T09:49:52;7.60;;;5.90;;
11665;SDS011;5889;51.350;6.708;2023-08-30T09:52:22;8.85;;;6.05;;
11665;SDS011;5889;51.350;6.708;2023-08-30T09:54:51;10.02;;;6.82;;
11665;SDS011;5889;51.350;6.708;2023-08-30T09:57:18;8.38;;;5.93;;
11665;SDS011;5889;51.350;6.708;2023-08-30T09:59:49;12.07;;;6.13;;
11665;SDS011;5889;51.350;6.708;2023-08-30T10:02:16;10.10;;;6.10;;
11665;SDS011;5889;51.350;6.708;2023-08-30T10:04:44;10.00;;;6.03;;
11665;SDS011;5889;51.350;6.708;2023-08-30T10:07:12;10.80;;;5.60;;
11665;SDS011;5889;51.350;6.708;2023-08-30T10:09:41;10.23;;;5.93;;
11665;SDS011;5889;51.350;6.708;2023-08-30T10:12:08;8.88;;;6.28;;
11665;SDS011;5889;51.350;6.708;2023-08-30T10:14:36;12.52;;;6.93;;
11665;SDS011;5889;51.350;6.708;2023-08-30T10:17:05;8.95;;;6.00;;
11665;SDS011;5889;51.350;6.708;2023-08-30T10:19:34;9.18;;;5.97;;
11665;SDS011;5889;51.350;6.708;2023-08-30T10:22:04;9.88;;;5.60;;
11665;SDS011;5889;51.350;6.708;2023-08-30T10:24:35;10.02;;;5.70;;
11665;SDS011;5889;51.350;6.708;2023-08-30T10:27:07;7.10;;;5.13;;
11665;SDS011;5889;51.350;6.708;2023-08-30T10:29:35;7.40;;;5.70;;
11665;SDS011;5889;51.350;6.708;2023-08-30T10:32:05;8.20;;;5.57;;
11665;SDS011;5889;51.350;6.708;2023-08-30T10:34:33;8.07;;;5.55;;
11665;SDS011;5889;51.350;6.708;2023-08-30T10:37:02;8.03;;;5.83;;
11665;SDS011;5889;51.350;6.708;2023-08-30T10:39:35;8.63;;;5.80;;
11665;SDS011;5889;51.350;6.708;2023-08-30T10:42:07;10.18;;;6.43;;
11665;SDS011;5889;51.350;6.708;2023-08-30T10:44:35;7.73;;;6.53;;
11665;SDS011;5889;51.350;6.708;2023-08-30T10:47:19;8.43;;;6.13;;
11665;SDS011;5889;51.350;6.708;2023-08-30T10:49:49;10.23;;;7.10;;
11665;SDS011;5889;51.350;6.708;2023-08-30T10:52:16;9.10;;;6.40;;
11665;SDS011;5889;51.350;6.708;2023-08-30T10:54:42;7.95;;;5.97;;
11665;SDS011;5889;51.350;6.708;2023-08-30T10:57:13;8.77;;;6.10;;
11665;SDS011;5889;51.350;6.708;2023-08-30T10:59:47;9.13;;;6.33;;
11665;SDS011;5889;51.350;6.708;2023-08-30T11:02:31;6.83;;;5.80;;
11665;SDS011;5889;51.350;6.708;2023-08-30T11:04:58;8.07;;;5.73;;
11665;SDS011;5889;51.350;6.708;2023-08-30T11:07:25;8.23;;;5.33;;
11665;SDS011;5889;51.350;6.708;2023-08-30T11:09:53;8.50;;;5.47;;
11665;SDS011;5889;51.350;6.708;2023-08-30T11:12:20;7.57;;;5.77;;
11665;SDS011;5889;51.350;6.708;2023-08-30T11:14:48;6.67;;;5.73;;
11665;SDS011;5889;51.350;6.708;2023-08-30T11:17:15;11.73;;;6.50;;
11665;SDS011;5889;51.350;6.708;2023-08-30T11:19:44;6.57;;;5.40;;
11665;SDS011;5889;51.350;6.708;2023-08-30T11:22:12;7.53;;;5.77;;
11665;SDS011;5889;51.350;6.708;2023-08-30T11:24:39;9.47;;;5.60;;
11665;SDS011;5889;51.350;6.708;2023-08-30T11:27:07;6.80;;;5.47;;
11665;SDS011;5889;51.350;6.708;2023-08-30T11:29:34;9.13;;;6.10;;
11665;SDS011;5889;51.350;6.708;2023-08-30T11:32:01;7.50;;;5.60;;
11665;SDS011;5889;51.350;6.708;2023-08-30T11:34:28;9.20;;;5.77;;
11665;SDS011;5889;51.350;6.708;2023-08-30T11:36:57;6.47;;;5.33;;
11665;SDS011;5889;51.350;6.708;2023-08-30T11:39:26;6.88;;;5.22;;
11665;SDS011;5889;51.350;6.708;2023-08-30T11:41:55;8.45;;;4.72;;
11665;SDS011;5889;51.350;6.708;2023-08-30T11:44:23;6.77;;;5.50;;
11665;SDS011;5889;51.350;6.708;2023-08-30T11:46:57;7.13;;;4.30;;
11665;SDS011;5889;51.350;6.708;2023-08-30T11:49:24;7.80;;;5.03;;
11665;SDS011;5889;51.350;6.708;2023-08-30T11:51:53;5.53;;;4.60;;
11665;SDS011;5889;51.350;6.708;2023-08-30T11:54:25;5.63;;;3.93;;
11665;SDS011;5889;51.350;6.708;2023-08-30T11:56:53;5.67;;;4.30;;
11665;SDS011;5889;51.350;6.708;2023-08-30T11:59:20;4.90;;;4.27;;
11665;SDS011;5889;51.350;6.708;2023-08-30T12:01:47;6.73;;;4.53;;
11665;SDS011;5889;51.350;6.708;2023-08-30T12:04:14;5.10;;;4.10;;
11665;SDS011;5889;51.350;6.708;2023-08-30T12:06:43;6.65;;;4.88;;
11665;SDS011;5889;51.350;6.708;2023-08-30T12:09:13;4.82;;;3.40;;
11665;SDS011;5889;51.350;6.708;2023-08-30T12:11:42;4.97;;;3.10;;
11665;SDS011;5889;51.350;6.708;2023-08-30T12:14:09;4.53;;;3.70;;
11665;SDS011;5889;51.350;6.708;2023-08-30T12:16:36;4.20;;;3.53;;
11665;SDS011;5889;51.350;6.708;2023-08-30T12:19:09;4.67;;;3.83;;
11665;SDS011;5889;51.350;6.708;2023-08-30T12:21:41;4.83;;;3.60;;
11665;SDS011;5889;51.350;6.708;2023-08-30T12:24:08;5.90;;;4.40;;
11665;SDS011;5889;51.350;6.708;2023-08-30T12:26:35;4.97;;;4.40;;
11665;SDS011;5889;51.350;6.708;2023-08-30T12:29:04;5.57;;;4.33;;
11665;SDS011;5889;51.350;6.708;2023-08-30T12:31:32;4.53;;;4.05;;
11665;SDS011;5889;51.350;6.708;2023-08-30T12:33:59;5.22;;;4.18;;
11665;SDS011;5889;51.350;6.708;2023-08-30T12:36:26;5.43;;;4.10;;
11665;SDS011;5889;51.350;6.708;2023-08-30T12:38:53;5.60;;;4.50;;
11665;SDS011;5889;51.350;6.708;2023-08-30T12:41:20;7.73;;;4.70;;
11665;SDS011;5889;51.350;6.708;2023-08-30T12:43:48;5.37;;;4.60;;
11665;SDS011;5889;51.350;6.708;2023-08-30T12:46:19;6.27;;;5.50;;
11665;SDS011;5889;51.350;6.708;2023-08-30T12:48:46;6.20;;;5.00;;
11665;SDS011;5889;51.350;6.708;2023-08-30T12:51:13;9.10;;;5.67;;
11665;SDS011;5889;51.350;6.708;2023-08-30T12:53:40;6.93;;;5.50;;
11665;SDS011;5889;51.350;6.708;2023-08-30T12:56:07;7.80;;;5.72;;
11665;SDS011;5889;51.350;6.708;2023-08-30T12:58:34;6.93;;;5.87;;
11665;SDS011;5889;51.350;6.708;2023-08-30T13:01:01;7.47;;;5.53;;
11665;SDS011;5889;51.350;6.708;2023-08-30T13:03:30;6.82;;;5.70;;
11665;SDS011;5889;51.350;6.708;2023-08-30T13:05:57;8.15;;;5.82;;
11665;SDS011;5889;51.350;6.708;2023-08-30T13:08:24;6.90;;;6.20;;
11665;SDS011;5889;51.350;6.708;2023-08-30T13:10:51;7.50;;;5.45;;
11665;SDS011;5889;51.350;6.708;2023-08-30T13:13:18;5.65;;;5.05;;
11665;SDS011;5889;51.350;6.708;2023-08-30T13:15:46;6.87;;;5.30;;
11665;SDS011;5889;51.350;6.708;2023-08-30T13:18:13;6.13;;;5.23;;
11665;SDS011;5889;51.350;6.708;2023-08-30T13:20:42;5.20;;;4.67;;
11665;SDS011;5889;51.350;6.708;2023-08-30T13:23:10;7.73;;;5.33;;
11665;SDS011;5889;51.350;6.708;2023-08-30T13:25:38;6.03;;;4.90;;
11665;SDS011;5889;51.350;6.708;2023-08-30T13:28:06;5.63;;;4.88;;
11665;SDS011;5889;51.350;6.708;2023-08-30T13:30:33;5.68;;;4.72;;
11665;SDS011;5889;51.350;6.708;2023-08-30T13:33:00;5.47;;;4.50;;
11665;SDS011;5889;51.350;6.708;2023-08-30T13:35:27;4.90;;;3.80;;
11665;SDS011;5889;51.350;6.708;2023-08-30T13:37:55;5.43;;;3.50;;
11665;SDS011;5889;51.350;6.708;2023-08-30T13:40:22;4.10;;;3.20;;
11665;SDS011;5889;51.350;6.708;2023-08-30T13:42:49;3.17;;;2.87;;
11665;SDS011;5889;51.350;6.708;2023-08-30T13:45:16;3.97;;;3.20;;
11665;SDS011;5889;51.350;6.708;2023-08-30T13:47:43;3.65;;;3.28;;
11665;SDS011;5889;51.350;6.708;2023-08-30T13:50:12;3.83;;;3.03;;
11665;SDS011;5889;51.350;6.708;2023-08-30T13:52:38;3.83;;;3.40;;
11665;SDS011;5889;51.350;6.708;2023-08-30T13:55:09;4.27;;;3.53;;
11665;SDS011;5889;51.350;6.708;2023-08-30T13:57:37;3.83;;;3.40;;
11665;SDS011;5889;51.350;6.708;2023-08-30T14:00:05;4.78;;;3.85;;
11665;SDS011;5889;51.350;6.708;2023-08-30T14:02:34;3.80;;;3.40;;
11665;SDS011;5889;51.350;6.708;2023-08-30T14:05:01;5.78;;;3.83;;
11665;SDS011;5889;51.350;6.708;2023-08-30T14:07:29;6.07;;;3.93;;
11665;SDS011;5889;51.350;6.708;2023-08-30T14:09:56;5.75;;;4.20;;
11665;SDS011;5889;51.350;6.708;2023-08-30T14:12:24;6.18;;;4.18;;
11665;SDS011;5889;51.350;6.708;2023-08-30T14:14:51;6.10;;;4.50;;
11665;SDS011;5889;51.350;6.708;2023-08-30T14:17:19;7.55;;;4.60;;
11665;SDS011;5889;51.350;6.708;2023-08-30T14:19:46;6.60;;;4.90;;
11665;SDS011;5889;51.350;6.708;2023-08-30T14:22:13;7.22;;;4.65;;
11665;SDS011;5889;51.350;6.708;2023-08-30T14:24:40;4.53;;;4.13;;
11665;SDS011;5889;51.350;6.708;2023-08-30T14:27:07;5.95;;;4.78;;
11665;SDS011;5889;51.350;6.708;2023-08-30T14:29:35;5.37;;;4.80;;
11665;SDS011;5889;51.350;6.708;2023-08-30T14:32:02;5.23;;;4.37;;
11665;SDS011;5889;51.350;6.708;2023-08-30T14:34:29;6.20;;;4.73;;
11665;SDS011;5889;51.350;6.708;2023-08-30T14:36:56;7.40;;;5.57;;
11665;SDS011;5889;51.350;6.708;2023-08-30T14:39:23;6.47;;;5.35;;
11665;SDS011;5889;51.350;6.708;2023-08-30T14:41:50;7.60;;;5.83;;
11665;SDS011;5889;51.350;6.708;2023-08-30T14:44:17;8.73;;;6.13;;
11665;SDS011;5889;51.350;6.708;2023-08-30T14:46:46;8.03;;;5.60;;
11665;SDS011;5889;51.350;6.708;2023-08-30T14:49:14;8.37;;;6.43;;